KCHA

Lovell Field Airport

Chattanooga, Tennessee, USA
METAR KCHA 160553Z AUTO 00000KT 10SM CLR 23/21 A3009 RMK AO2 SLP181 T02330211 10283 20233 50000 $
Observed Flight Rules
Aug-16 @ 05:53 UTC (23 minutes ago) Visual Flight Rules
Visibility Clouds
10 miles
  • Clear skies
Temperatures Readings
Current 23°C / 73°F
Dewpoint 21°C / 70°F
Humidity 89%
Altimeter 30.09" Hg
Pressure 1018.1 hPa
Elevation 210
METAR KCHA 160553Z AUTO 00000KT 10SM CLR 23/21 A3009 RMK AO2 SLP181 T02330211 10283 20233 50000 $
Observed Flight Rules
Aug-16 @ 05:53 UTC
(23 minutes ago)
VFR
Clouds
  • Clear skies
Temperature Dewpoint
23°C / 73°F 21°C / 70°F
Humidity Altimeter Pressure
89% 30.09" Hg 1018.1 hPa